createdAt,value
2018-04-04T00:00:51.320Z,79.80
2018-04-04T00:01:51.506Z,80.08
2018-04-04T00:02:51.736Z,79.60
2018-04-04T00:03:51.862Z,79.32
2018-04-04T00:04:52.043Z,79.51
2018-04-04T00:05:52.279Z,79.51
2018-04-04T00:06:52.399Z,79.70
2018-04-04T00:07:52.568Z,79.22
2018-04-04T00:08:52.747Z,79.13
2018-04-04T00:09:52.938Z,80.08
2018-04-04T00:10:53.115Z,79.99
2018-04-04T00:11:53.289Z,80.08
2018-04-04T00:12:53.468Z,79.80
2018-04-04T00:13:53.645Z,80.08
2018-04-04T00:14:53.828Z,79.89
2018-04-04T00:15:54.004Z,79.99
2018-04-04T00:16:54.183Z,79.89
2018-04-04T00:17:54.364Z,80.08
2018-04-04T00:18:54.544Z,79.99
2018-04-04T00:19:54.720Z,79.70
2018-04-04T00:20:54.888Z,79.99
2018-04-04T00:21:55.072Z,79.51
2018-04-04T00:22:55.315Z,80.08
2018-04-04T00:23:55.420Z,80.46
2018-04-04T00:24:55.604Z,80.46
2018-04-04T00:25:55.788Z,80.23
2018-04-04T00:26:55.947Z,80.42
2018-04-04T00:27:56.116Z,80.80
2018-04-04T00:28:56.311Z,81.28
2018-04-04T00:29:56.492Z,81.47
2018-04-04T00:30:56.666Z,80.71
2018-04-04T00:31:56.854Z,80.99
2018-04-04T00:32:57.032Z,80.99
2018-04-04T00:33:57.229Z,81.03
2018-04-04T00:35:57.575Z,81.23
2018-04-04T00:36:57.755Z,80.90
2018-04-04T00:37:57.947Z,80.90
2018-04-04T00:38:58.124Z,80.23
2018-04-04T00:39:58.286Z,80.65
2018-04-04T00:40:58.452Z,80.36
2018-04-04T00:41:58.628Z,80.61
2018-04-04T00:42:58.810Z,80.46
2018-04-04T00:43:58.975Z,80.71
2018-04-04T00:44:59.162Z,80.36
2018-04-04T00:45:59.333Z,80.55
2018-04-04T00:46:59.507Z,80.18
2018-04-04T00:47:59.681Z,80.13
2018-04-04T00:48:59.845Z,80.52
2018-04-04T00:50:00.043Z,80.71
2018-04-04T00:51:00.218Z,81.18
2018-04-04T00:52:00.413Z,80.90
2018-04-04T00:53:00.569Z,81.47
2018-04-04T00:54:00.747Z,81.76
2018-04-04T00:55:00.931Z,82.04
2018-04-04T00:56:01.101Z,81.37
2018-04-04T00:57:01.283Z,82.23
2018-04-04T00:58:01.452Z,81.56
2018-04-04T00:59:01.633Z,82.04
2018-04-04T01:00:01.817Z,81.47
2018-04-04T01:01:01.990Z,81.47
2018-04-04T01:02:02.171Z,82.04
2018-04-04T01:03:02.348Z,81.66
2018-04-04T01:04:02.524Z,81.37
2018-04-04T01:05:02.706Z,82.32
2018-04-04T01:06:02.875Z,82.51
2018-04-04T01:07:03.067Z,81.95
2018-04-04T01:08:03.242Z,82.23
2018-04-04T01:09:03.421Z,81.95
2018-04-04T01:10:03.600Z,82.23
2018-04-04T01:11:03.776Z,82.04
2018-04-04T01:12:03.958Z,82.23
2018-04-04T01:13:04.131Z,82.42
2018-04-04T01:14:04.320Z,82.04
2018-04-04T01:15:04.500Z,81.76
2018-04-04T01:16:04.668Z,81.76
2018-04-04T01:17:04.856Z,82.23
2018-04-04T01:18:05.029Z,82.04
2018-04-04T01:19:05.208Z,82.32
2018-04-04T01:20:05.386Z,82.23
2018-04-04T01:21:05.571Z,82.38
2018-04-04T01:22:05.769Z,82.38
2018-04-04T01:23:05.925Z,82.48
2018-04-04T01:24:06.092Z,82.57
2018-04-04T01:25:06.278Z,83.33
2018-04-04T01:26:06.447Z,83.23
2018-04-04T01:27:06.624Z,83.23
2018-04-04T01:28:06.794Z,83.52
2018-04-04T01:29:06.962Z,83.23
2018-04-04T01:30:07.151Z,84.09
2018-04-04T01:31:07.332Z,84.38
2018-04-04T01:32:07.520Z,84.38
2018-04-04T01:33:07.688Z,84.76
2018-04-04T01:34:07.867Z,84.19
2018-04-04T01:35:08.045Z,83.90
2018-04-04T01:36:08.247Z,83.42
2018-04-04T01:37:08.407Z,83.14
2018-04-04T01:38:08.586Z,83.71
2018-04-04T01:39:08.784Z,83.62
2018-04-04T01:40:08.939Z,84.38
2018-04-04T01:41:09.132Z,83.71
2018-04-04T01:42:09.275Z,83.42
2018-04-04T01:43:09.456Z,83.52
2018-04-04T01:44:09.636Z,83.90
2018-04-04T01:45:09.810Z,83.14
2018-04-04T01:46:10.007Z,83.62
2018-04-04T01:47:10.175Z,83.33
2018-04-04T01:48:10.356Z,83.42
2018-04-04T01:49:10.529Z,83.42
2018-04-04T01:50:10.702Z,83.23
2018-04-04T01:51:10.896Z,83.33
2018-04-04T01:52:11.031Z,83.42
2018-04-04T01:53:11.229Z,82.67
2018-04-04T01:54:11.393Z,82.67
2018-04-04T01:55:11.556Z,82.38
2018-04-04T01:56:11.736Z,82.67
2018-04-04T01:57:11.933Z,82.67
2018-04-04T01:58:12.081Z,82.38
2018-04-04T01:59:12.250Z,82.67
2018-04-04T02:00:12.425Z,83.42
2018-04-04T02:01:12.613Z,83.62
2018-04-04T02:02:12.793Z,84.56
2018-04-04T02:03:12.967Z,84.00
2018-04-04T02:04:13.151Z,84.28
2018-04-04T02:05:13.324Z,83.81
2018-04-04T02:06:13.502Z,83.90
2018-04-04T02:07:13.686Z,83.62
2018-04-04T02:08:13.846Z,83.81
2018-04-04T02:09:14.025Z,83.23
2018-04-04T02:10:14.465Z,84.00
2018-04-04T02:11:14.377Z,83.90
2018-04-04T02:12:14.553Z,84.38
2018-04-04T02:13:14.729Z,84.76
2018-04-04T02:14:14.917Z,83.71
2018-04-04T02:15:15.092Z,83.52
2018-04-04T02:16:15.272Z,84.09
2018-04-04T02:17:15.445Z,84.09
2018-04-04T02:18:15.627Z,84.00
2018-04-04T02:19:16.065Z,83.81
2018-04-04T02:20:15.985Z,83.23
2018-04-04T02:21:16.161Z,83.14
2018-04-04T02:22:16.340Z,83.14
2018-04-04T02:23:16.517Z,83.33
2018-04-04T02:24:16.698Z,82.95
2018-04-04T02:25:16.872Z,83.23
2018-04-04T02:26:17.055Z,82.76
2018-04-04T02:27:17.237Z,82.57
2018-04-04T02:28:17.405Z,83.04
2018-04-04T02:29:17.591Z,82.67
2018-04-04T02:30:17.835Z,83.04
2018-04-04T02:31:17.940Z,82.48
2018-04-04T02:32:18.122Z,82.48
2018-04-04T02:33:18.316Z,82.38
2018-04-04T02:34:18.487Z,82.67
2018-04-04T02:35:18.644Z,83.14
2018-04-04T02:36:18.816Z,82.57
2018-04-04T02:37:18.994Z,82.86
2018-04-04T02:38:19.173Z,83.42
2018-04-04T02:39:19.354Z,83.23
2018-04-04T02:40:19.528Z,83.81
2018-04-04T02:41:19.703Z,83.90
2018-04-04T02:42:19.885Z,84.00
2018-04-04T02:43:20.050Z,83.62
2018-04-04T02:44:20.234Z,83.23
2018-04-04T02:45:20.416Z,83.71
2018-04-04T02:46:20.585Z,83.81
2018-04-04T02:47:20.763Z,83.52
2018-04-04T02:48:20.938Z,83.23
2018-04-04T02:49:21.123Z,83.52
2018-04-04T02:50:21.303Z,83.33
2018-04-04T02:51:21.484Z,82.67
2018-04-04T02:52:21.653Z,83.33
2018-04-04T02:53:21.823Z,83.71
2018-04-04T02:54:21.996Z,84.00
2018-04-04T02:55:22.160Z,83.23
2018-04-04T02:56:22.362Z,83.33
2018-04-04T02:57:22.541Z,83.42
2018-04-04T02:58:22.729Z,83.42
2018-04-04T02:59:22.896Z,83.33
2018-04-04T03:00:23.079Z,83.42
2018-04-04T03:01:23.254Z,83.62
2018-04-04T03:02:23.431Z,83.14
2018-04-04T03:03:23.613Z,83.81
2018-04-04T03:04:23.789Z,83.90
2018-04-04T03:05:23.968Z,83.71
2018-04-04T03:06:24.148Z,83.33
2018-04-04T03:07:24.317Z,83.33
2018-04-04T03:08:24.509Z,83.14
2018-04-04T03:09:24.669Z,83.71
2018-04-04T03:10:24.855Z,83.62
2018-04-04T03:11:25.022Z,83.95
2018-04-04T03:12:25.209Z,84.52
2018-04-04T03:13:25.390Z,84.72
2018-04-04T03:14:25.643Z,84.14
2018-04-04T03:15:25.736Z,83.76
2018-04-04T03:16:26.160Z,83.67
2018-04-04T03:17:26.090Z,84.62
2018-04-04T03:18:26.273Z,84.33
2018-04-04T03:19:26.448Z,84.91
2018-04-04T03:20:26.630Z,84.43
2018-04-04T03:21:26.807Z,84.14
2018-04-04T03:22:26.983Z,84.52
2018-04-04T03:23:27.180Z,84.47
2018-04-04T03:24:27.330Z,84.38
2018-04-04T03:25:27.515Z,83.90
2018-04-04T03:26:27.940Z,84.00
2018-04-04T03:27:27.873Z,84.00
2018-04-04T03:28:28.046Z,83.52
2018-04-04T03:29:28.218Z,83.86
2018-04-04T03:30:28.401Z,84.00
2018-04-04T03:31:28.588Z,84.05
2018-04-04T03:32:28.757Z,84.00
2018-04-04T03:33:28.942Z,83.90
2018-04-04T03:34:29.096Z,83.71
2018-04-04T03:35:29.273Z,84.47
2018-04-04T03:37:29.620Z,83.71
2018-04-04T03:38:29.801Z,83.29
2018-04-04T03:39:29.977Z,83.39
2018-04-04T03:40:30.156Z,83.67
2018-04-04T03:41:30.330Z,83.10
2018-04-04T03:42:30.504Z,83.29
2018-04-04T03:43:30.685Z,83.58
2018-04-04T03:44:30.863Z,84.43
2018-04-04T03:45:31.029Z,84.62
2018-04-04T03:46:31.205Z,84.52
2018-04-04T03:47:31.386Z,84.43
2018-04-04T03:48:31.562Z,84.14
2018-04-04T03:49:31.736Z,83.67
2018-04-04T03:50:31.915Z,84.52
2018-04-04T03:51:32.093Z,84.62
2018-04-04T03:52:32.280Z,84.72
2018-04-04T03:53:32.448Z,84.29
2018-04-04T03:54:32.616Z,84.48
2018-04-04T03:55:32.803Z,84.67
2018-04-04T03:56:33.067Z,83.53
2018-04-04T03:57:33.146Z,83.91
2018-04-04T03:58:33.298Z,84.58
2018-04-04T03:59:33.476Z,84.20
2018-04-04T04:00:33.652Z,85.53
2018-04-04T04:01:33.840Z,85.72
2018-04-04T04:02:34.036Z,85.53
2018-04-04T04:03:34.200Z,86.38
2018-04-04T04:04:34.360Z,86.38
2018-04-04T04:05:34.517Z,86.38
2018-04-04T04:06:34.695Z,86.57
2018-04-04T04:07:34.869Z,86.57
2018-04-04T04:08:35.043Z,86.95
2018-04-04T04:09:35.227Z,86.29
2018-04-04T04:10:35.387Z,86.47
2018-04-04T04:11:35.570Z,86.10
2018-04-04T04:12:35.729Z,86.29
2018-04-04T04:13:35.896Z,86.19
2018-04-04T04:14:36.071Z,86.10
2018-04-04T04:15:36.245Z,86.47
2018-04-04T04:16:36.419Z,86.57
2018-04-04T04:17:36.604Z,86.57
2018-04-04T04:18:36.772Z,86.47
2018-04-04T04:19:36.950Z,86.57
2018-04-04T04:20:37.136Z,86.67
2018-04-04T04:21:37.303Z,86.95
2018-04-04T04:22:37.483Z,86.76
2018-04-04T04:23:37.666Z,86.57
2018-04-04T04:24:37.847Z,86.19
2018-04-04T04:25:38.016Z,86.86
2018-04-04T04:26:38.205Z,86.19
2018-04-04T04:27:38.383Z,86.00
2018-04-04T04:28:38.545Z,85.53
2018-04-04T04:29:38.702Z,85.62
2018-04-04T04:30:38.860Z,85.53
2018-04-04T04:31:39.049Z,85.62
2018-04-04T04:32:39.217Z,86.57
2018-04-04T04:33:39.378Z,86.67
2018-04-04T04:34:39.552Z,86.95
2018-04-04T04:35:39.741Z,86.57
2018-04-04T04:36:39.911Z,86.67
2018-04-04T04:37:40.070Z,86.57
2018-04-04T04:38:40.248Z,86.38
2018-04-04T04:39:40.430Z,85.72
2018-04-04T04:40:40.600Z,86.19
2018-04-04T04:41:40.783Z,86.29
2018-04-04T04:42:40.955Z,85.72
2018-04-04T04:43:41.134Z,85.72
2018-04-04T04:44:41.309Z,85.43
2018-04-04T04:45:41.498Z,85.43
2018-04-04T04:46:41.658Z,86.10
2018-04-04T04:47:41.836Z,86.29
2018-04-04T04:48:42.010Z,86.38
2018-04-04T04:49:42.191Z,86.76
2018-04-04T04:50:42.352Z,86.57
2018-04-04T04:51:42.529Z,86.47
2018-04-04T04:52:42.706Z,86.57
2018-04-04T04:53:42.902Z,86.67
2018-04-04T04:54:43.048Z,86.00
2018-04-04T04:55:43.227Z,86.19
2018-04-04T04:56:43.412Z,85.91
2018-04-04T04:57:43.580Z,85.81
2018-04-04T04:58:43.755Z,85.53
2018-04-04T04:59:43.927Z,84.29
2018-04-04T05:00:44.101Z,84.58
2018-04-04T05:01:44.281Z,84.01
2018-04-04T05:02:44.463Z,84.67
2018-04-04T05:03:44.641Z,85.15
2018-04-04T05:04:44.827Z,85.24
2018-04-04T05:05:45.006Z,85.53
2018-04-04T05:06:45.174Z,85.24
2018-04-04T05:07:45.352Z,85.91
2018-04-04T05:08:45.535Z,85.62
2018-04-04T05:10:45.879Z,86.95
2018-04-04T05:11:46.069Z,86.67
2018-04-04T05:12:46.246Z,86.67
2018-04-04T05:13:46.417Z,86.29
2018-04-04T05:14:46.600Z,86.95
2018-04-04T05:15:46.805Z,86.57
2018-04-04T05:16:46.966Z,86.76
2018-04-04T05:17:47.152Z,86.86
2018-04-04T05:18:47.324Z,86.57
2018-04-04T05:19:47.506Z,86.57
2018-04-04T05:20:47.677Z,86.47
2018-04-04T05:21:47.857Z,86.86
2018-04-04T05:22:48.035Z,86.86
2018-04-04T05:23:48.211Z,86.57
2018-04-04T05:24:48.385Z,86.38
2018-04-04T05:25:48.565Z,86.47
2018-04-04T05:26:48.753Z,86.19
2018-04-04T05:27:48.912Z,85.91
2018-04-04T05:28:49.087Z,85.72
2018-04-04T05:29:49.269Z,85.34
2018-04-04T05:30:49.433Z,84.77
2018-04-04T05:31:49.634Z,85.15
2018-04-04T05:32:49.796Z,84.77
2018-04-04T05:33:49.970Z,84.29
2018-04-04T05:34:50.169Z,84.58
2018-04-04T05:35:50.332Z,84.62
2018-04-04T05:36:50.509Z,84.43
2018-04-04T05:37:50.693Z,84.39
2018-04-04T05:38:50.865Z,84.29
2018-04-04T05:39:51.040Z,84.77
2018-04-04T05:40:51.213Z,84.86
2018-04-04T05:41:51.402Z,85.24
2018-04-04T05:42:51.567Z,85.24
2018-04-04T05:43:51.731Z,85.72
2018-04-04T05:44:51.973Z,85.62
2018-04-04T05:45:52.111Z,85.38
2018-04-04T05:46:52.260Z,85.57
2018-04-04T05:47:52.436Z,85.38
2018-04-04T05:48:52.637Z,84.62
2018-04-04T05:49:52.821Z,83.72
2018-04-04T05:50:52.993Z,83.62
2018-04-04T05:51:53.178Z,83.82
2018-04-04T05:52:53.374Z,83.67
2018-04-04T05:53:53.798Z,84.67
2018-04-04T05:54:53.730Z,85.81
2018-04-04T05:55:53.909Z,85.72
2018-04-04T05:56:54.095Z,85.00
2018-04-04T05:57:54.269Z,85.10
2018-04-04T05:58:54.438Z,84.14
2018-04-04T05:59:54.616Z,84.24
2018-04-04T06:00:54.796Z,83.67
2018-04-04T06:01:54.972Z,82.91
2018-04-04T06:02:55.149Z,83.42
2018-04-04T06:03:55.350Z,82.48
2018-04-04T06:04:55.509Z,82.53
2018-04-04T06:05:55.687Z,82.67
2018-04-04T06:06:55.874Z,81.81
2018-04-04T06:07:56.041Z,80.71
2018-04-04T06:08:56.215Z,80.42
2018-04-04T06:09:56.394Z,79.57
2018-04-04T06:10:56.568Z,79.57
2018-04-04T06:11:56.758Z,79.57
2018-04-04T06:12:56.983Z,80.38
2018-04-04T06:13:57.168Z,81.52
2018-04-04T06:14:57.377Z,81.71
2018-04-04T06:15:57.457Z,81.81
2018-04-04T06:16:57.641Z,81.85
2018-04-04T06:17:57.822Z,81.09
2018-04-04T06:18:58.001Z,80.52
2018-04-04T06:19:58.188Z,80.61
2018-04-04T06:20:58.370Z,80.52
2018-04-04T06:21:58.542Z,80.04
2018-04-04T06:22:58.726Z,80.33
2018-04-04T06:23:58.905Z,79.38
2018-04-04T06:24:59.135Z,78.37
2018-04-04T06:25:59.303Z,78.17
2018-04-04T06:26:59.439Z,77.98
2018-04-04T06:27:59.621Z,78.37
2018-04-04T06:28:59.800Z,77.42
2018-04-04T06:29:59.981Z,77.13
2018-04-04T06:31:00.179Z,76.27
2018-04-04T06:32:00.346Z,76.37
2018-04-04T06:33:00.514Z,76.94
2018-04-04T06:34:00.763Z,77.42
2018-04-04T06:35:00.899Z,77.89
2018-04-04T06:36:01.118Z,78.08
2018-04-04T06:37:01.272Z,78.99
2018-04-04T06:38:01.443Z,80.52
2018-04-04T06:39:01.651Z,79.99
2018-04-04T06:40:01.797Z,79.22
2018-04-04T06:41:01.965Z,78.80
2018-04-04T06:42:02.146Z,79.09
2018-04-04T06:43:02.330Z,79.28
2018-04-04T06:44:02.516Z,79.51
2018-04-04T06:45:02.687Z,77.59
2018-04-04T06:46:02.884Z,75.49
2018-04-04T06:47:03.042Z,74.35
2018-04-04T06:48:03.475Z,73.52
2018-04-04T06:49:03.403Z,74.35
2018-04-04T06:50:03.577Z,74.82
2018-04-04T06:51:03.767Z,74.92
2018-04-04T06:52:03.946Z,75.05
2018-04-04T06:53:04.124Z,74.44
2018-04-04T06:54:04.308Z,74.25
2018-04-04T06:55:04.505Z,74.44
2018-04-04T06:56:04.656Z,74.35
2018-04-04T06:57:04.849Z,73.91
2018-04-04T06:58:05.027Z,74.54
2018-04-04T06:59:05.217Z,75.01
2018-04-04T07:00:05.652Z,74.01
2018-04-04T07:01:05.696Z,72.80
2018-04-04T07:02:05.904Z,72.23
2018-04-04T07:03:05.956Z,71.56
2018-04-04T07:04:06.121Z,70.79
2018-04-04T07:05:06.312Z,71.02
2018-04-04T07:06:06.478Z,69.87
2018-04-04T07:07:06.666Z,70.45
2018-04-04T07:08:06.843Z,69.68
2018-04-04T07:09:07.043Z,69.31
2018-04-04T07:10:07.248Z,69.05
2018-04-04T07:11:07.380Z,68.29
2018-04-04T07:12:07.573Z,68.67
2018-04-04T07:13:07.751Z,68.57
2018-04-04T07:14:07.922Z,68.19
2018-04-04T07:15:08.143Z,68.38
2018-04-04T07:16:08.274Z,69.31
2018-04-04T07:17:08.462Z,70.36
2018-04-04T07:18:08.656Z,69.97
2018-04-04T07:19:08.829Z,69.59
2018-04-04T07:20:08.998Z,69.40
2018-04-04T07:21:09.179Z,69.62
2018-04-04T07:22:09.359Z,69.24
2018-04-04T07:23:09.538Z,68.61
2018-04-04T07:24:09.762Z,67.46
2018-04-04T07:25:09.914Z,67.36
2018-04-04T07:26:10.089Z,66.89
2018-04-04T07:27:10.287Z,66.79
2018-04-04T07:28:10.468Z,67.08
2018-04-04T07:29:10.625Z,67.18
2018-04-04T07:30:10.844Z,66.60
2018-04-04T07:31:10.988Z,65.97
2018-04-04T07:32:11.186Z,66.44
2018-04-04T07:33:11.371Z,65.97
2018-04-04T07:34:11.550Z,66.41
2018-04-04T07:35:11.730Z,66.35
2018-04-04T07:36:11.917Z,66.79
2018-04-04T07:37:12.095Z,67.43
2018-04-04T07:38:12.304Z,68.67
2018-04-04T07:39:12.485Z,68.38
2018-04-04T07:40:12.680Z,69.15
2018-04-04T07:41:12.864Z,68.76
2018-04-04T07:42:13.035Z,70.01
2018-04-04T07:43:13.214Z,70.07
2018-04-04T07:44:13.398Z,69.97
2018-04-04T07:45:13.577Z,69.97
2018-04-04T07:46:13.761Z,69.97
2018-04-04T07:47:13.945Z,70.83
2018-04-04T07:48:14.113Z,71.12
2018-04-04T07:49:14.296Z,71.12
2018-04-04T07:50:14.479Z,70.83
2018-04-04T07:51:14.647Z,71.02
2018-04-04T07:52:14.821Z,70.64
2018-04-04T07:53:14.992Z,71.21
2018-04-04T07:54:15.177Z,71.88
2018-04-04T07:55:15.359Z,72.93
2018-04-04T07:56:15.544Z,73.50
2018-04-04T07:57:15.722Z,74.27
2018-04-04T07:58:15.894Z,74.08
2018-04-04T07:59:16.087Z,74.74
2018-04-04T08:00:16.269Z,75.18
2018-04-04T08:01:16.427Z,76.39
2018-04-04T08:02:16.608Z,76.33
2018-04-04T08:03:16.821Z,75.37
2018-04-04T08:04:16.964Z,76.23
2018-04-04T08:05:17.148Z,76.23
2018-04-04T08:06:17.347Z,76.14
2018-04-04T08:07:17.552Z,76.71
2018-04-04T08:08:17.759Z,76.37
2018-04-04T08:09:18.021Z,76.84
2018-04-04T08:10:18.088Z,76.56
2018-04-04T08:11:18.256Z,75.54
2018-04-04T08:12:18.439Z,73.48
2018-04-04T08:13:18.625Z,72.33
2018-04-04T08:14:18.794Z,70.84
2018-04-04T08:15:18.970Z,70.75
2018-04-04T08:16:19.194Z,70.15
2018-04-04T08:17:19.333Z,67.41
2018-04-04T08:18:19.508Z,65.45
2018-04-04T08:19:19.691Z,66.64
2018-04-04T08:20:19.858Z,65.68
2018-04-04T08:21:20.039Z,64.34
2018-04-04T08:22:20.218Z,64.34
2018-04-04T08:23:20.421Z,64.25
2018-04-04T08:24:20.578Z,64.37
2018-04-04T08:25:20.764Z,64.18
2018-04-04T08:26:20.966Z,62.68
2018-04-04T08:27:21.172Z,60.70
2018-04-04T08:28:21.309Z,59.58
2018-04-04T08:29:21.485Z,59.03
2018-04-04T08:30:21.673Z,57.43
2018-04-04T08:31:21.880Z,56.40
2018-04-04T08:32:22.043Z,54.19
2018-04-04T08:33:22.260Z,54.57
2018-04-04T08:34:22.408Z,54.22
2018-04-04T08:35:22.533Z,53.61
2018-04-04T08:36:22.706Z,53.42
2018-04-04T08:37:22.906Z,54.00
2018-04-04T08:38:23.080Z,54.38
2018-04-04T08:39:23.251Z,53.92
2018-04-04T08:40:23.466Z,54.19
2018-04-04T08:41:23.642Z,54.50
2018-04-04T08:42:23.816Z,54.22
2018-04-04T08:43:24.048Z,54.12
2018-04-04T08:44:24.172Z,53.83
2018-04-04T08:45:24.423Z,54.96
2018-04-04T08:46:24.541Z,55.89
2018-04-04T08:47:24.773Z,56.66
2018-04-04T08:48:24.897Z,56.76
2018-04-04T08:49:25.065Z,56.40
2018-04-04T08:50:25.271Z,57.37
2018-04-04T08:51:25.446Z,58.23
2018-04-04T08:52:25.602Z,59.16
2018-04-04T08:53:25.781Z,60.22
2018-04-04T08:54:25.986Z,60.50
2018-04-04T08:55:26.221Z,60.76
2018-04-04T08:56:26.319Z,60.67
2018-04-04T08:57:26.529Z,61.15
2018-04-04T08:58:26.700Z,61.15
2018-04-04T08:59:26.909Z,62.01
2018-04-04T09:00:27.070Z,61.60
2018-04-04T09:01:27.247Z,61.79
2018-04-04T09:02:27.461Z,62.84
2018-04-04T09:03:27.604Z,62.10
2018-04-04T09:04:27.773Z,62.55
2018-04-04T09:05:27.966Z,63.70
2018-04-04T09:06:28.123Z,63.32
2018-04-04T09:07:28.319Z,63.57
2018-04-04T09:08:28.475Z,64.50
2018-04-04T09:09:28.661Z,66.61
2018-04-04T09:10:28.837Z,66.54
2018-04-04T09:11:29.036Z,65.84
2018-04-04T09:12:29.207Z,67.27
2018-04-04T09:13:29.414Z,67.18
2018-04-04T09:14:29.594Z,66.99
2018-04-04T09:15:29.768Z,67.27
2018-04-04T09:16:29.935Z,67.31
2018-04-04T09:17:30.125Z,66.51
2018-04-04T09:18:30.302Z,66.80
2018-04-04T09:19:30.455Z,67.21
2018-04-04T09:20:30.675Z,67.31
2018-04-04T09:21:30.806Z,67.47
2018-04-04T09:22:30.991Z,67.94
2018-04-04T09:23:31.175Z,67.85
2018-04-04T09:24:31.355Z,67.27
2018-04-04T09:25:31.527Z,67.79
2018-04-04T09:26:31.699Z,67.50
2018-04-04T09:27:31.882Z,67.60
2018-04-04T09:28:32.076Z,67.50
2018-04-04T09:29:32.242Z,67.31
2018-04-04T09:30:32.414Z,67.60
2018-04-04T09:31:32.583Z,67.31
2018-04-04T09:32:32.746Z,67.34
2018-04-04T09:33:32.922Z,66.58
2018-04-04T09:34:33.106Z,66.77
2018-04-04T09:35:33.295Z,66.29
2018-04-04T09:36:33.438Z,66.38
2018-04-04T09:37:33.634Z,67.02
2018-04-04T09:38:33.782Z,67.69
2018-04-04T09:39:33.980Z,67.54
2018-04-04T09:40:34.155Z,67.54
2018-04-04T09:41:34.379Z,67.44
2018-04-04T09:42:34.520Z,67.60
2018-04-04T09:43:34.693Z,68.23
2018-04-04T09:44:34.886Z,68.84
2018-04-04T09:45:35.034Z,68.27
2018-04-04T09:46:35.231Z,68.17
2018-04-04T09:47:35.410Z,67.82
2018-04-04T09:48:35.590Z,67.79
2018-04-04T09:49:35.741Z,67.34
2018-04-04T09:50:35.922Z,66.96
2018-04-04T09:51:36.105Z,66.48
2018-04-04T09:52:36.286Z,66.86
2018-04-04T09:53:36.448Z,66.03
2018-04-04T09:54:36.709Z,65.75
2018-04-04T09:55:36.781Z,65.08
2018-04-04T09:56:36.946Z,65.26
2018-04-04T09:57:37.158Z,65.26
2018-04-04T09:58:37.323Z,65.46
2018-04-04T09:59:37.488Z,64.98
2018-04-04T10:00:37.695Z,64.98
2018-04-04T10:01:37.864Z,64.89
2018-04-04T10:02:38.007Z,64.98
2018-04-04T10:03:38.192Z,64.40
2018-04-04T10:04:38.374Z,64.22
2018-04-04T10:05:38.603Z,63.64
2018-04-04T10:06:38.831Z,63.73
2018-04-04T10:07:38.998Z,63.83
2018-04-04T10:08:39.188Z,63.35
2018-04-04T10:09:39.366Z,63.45
2018-04-04T10:10:39.517Z,63.54
2018-04-04T10:11:39.694Z,62.23
2018-04-04T10:12:39.868Z,61.02
2018-04-04T10:13:40.344Z,60.63
2018-04-04T10:14:40.198Z,60.25
2018-04-04T10:15:40.529Z,60.63
2018-04-04T10:16:40.584Z,60.63
2018-04-04T10:17:40.730Z,59.77
2018-04-04T10:18:41.516Z,58.45
2018-04-04T10:19:41.093Z,57.71
2018-04-04T10:20:41.703Z,57.17
2018-04-04T10:21:41.652Z,55.44
2018-04-04T10:22:42.421Z,54.79
2018-04-04T10:23:41.908Z,54.14
2018-04-04T10:24:42.284Z,54.24
2018-04-04T10:25:42.231Z,53.59
2018-04-04T10:26:42.410Z,52.18
2018-04-04T10:27:42.592Z,51.31
2018-04-04T10:28:42.982Z,51.79
2018-04-04T10:29:42.952Z,52.08
2018-04-04T10:30:43.113Z,51.79
2018-04-04T10:31:43.725Z,53.14
2018-04-04T10:32:43.493Z,52.87
2018-04-04T10:33:43.682Z,51.94
2018-04-04T10:34:44.861Z,50.13
2018-04-04T10:35:44.981Z,49.89
2018-04-04T10:36:44.449Z,50.09
2018-04-04T10:37:44.551Z,51.76
2018-04-04T10:38:44.585Z,52.89
2018-04-04T10:39:44.772Z,52.51
2018-04-04T10:40:44.874Z,52.80
2018-04-04T10:41:45.100Z,54.31
2018-04-04T10:42:45.242Z,54.09
2018-04-04T10:43:45.792Z,54.96
2018-04-04T10:44:45.663Z,55.44
2018-04-04T10:45:45.861Z,55.73
2018-04-04T10:46:46.042Z,55.89
2018-04-04T10:47:46.193Z,56.49
2018-04-04T10:48:46.350Z,56.56
2018-04-04T10:49:46.598Z,57.14
2018-04-04T10:50:46.875Z,57.52
2018-04-04T10:51:46.951Z,57.14
2018-04-04T10:52:47.143Z,57.23
2018-04-04T10:53:47.283Z,57.43
2018-04-04T10:54:47.451Z,57.90
2018-04-04T10:55:47.684Z,58.00
2018-04-04T10:56:48.016Z,58.10
2018-04-04T10:57:47.959Z,58.00
2018-04-04T10:58:48.208Z,58.20
2018-04-04T10:59:48.345Z,58.67
2018-04-04T11:00:48.547Z,58.55
2018-04-04T11:01:48.696Z,59.51
2018-04-04T11:02:48.852Z,59.70
2018-04-04T11:03:49.080Z,59.70
2018-04-04T11:04:49.255Z,59.86
2018-04-04T11:05:49.389Z,59.89
2018-04-04T11:06:49.595Z,60.44
2018-04-04T11:07:49.801Z,60.35
2018-04-04T11:08:49.925Z,60.44
2018-04-04T11:09:50.199Z,60.53
2018-04-04T11:10:50.338Z,60.05
2018-04-04T11:11:50.501Z,60.35
2018-04-04T11:12:50.633Z,60.53
2018-04-04T11:13:50.831Z,61.02
2018-04-04T11:14:51.008Z,61.40
2018-04-04T11:15:51.209Z,61.02
2018-04-04T11:16:51.381Z,60.82
2018-04-04T11:17:52.247Z,60.72
2018-04-04T11:18:51.741Z,61.02
2018-04-04T11:19:51.938Z,60.72
2018-04-04T11:20:52.119Z,60.72
2018-04-04T11:21:52.300Z,60.72
2018-04-04T11:22:52.481Z,60.72
2018-04-04T11:23:52.596Z,60.44
2018-04-04T11:24:52.860Z,60.63
2018-04-04T11:25:53.004Z,60.08
2018-04-04T11:26:53.130Z,59.51
2018-04-04T11:27:53.336Z,59.44
2018-04-04T11:28:53.482Z,58.39
2018-04-04T11:29:53.659Z,58.20
2018-04-04T11:30:53.819Z,58.00
2018-04-04T11:31:54.149Z,57.75
2018-04-04T11:32:54.139Z,58.22
2018-04-04T11:33:54.352Z,58.77
2018-04-04T11:34:54.499Z,58.70
2018-04-04T11:35:54.653Z,58.32
2018-04-04T11:36:54.853Z,58.03
2018-04-04T11:37:55.002Z,57.90
2018-04-04T11:38:55.207Z,58.10
2018-04-04T11:39:55.414Z,58.67
2018-04-04T11:40:55.602Z,58.48
2018-04-04T11:41:55.701Z,58.42
2018-04-04T11:42:55.891Z,58.58
2018-04-04T11:43:56.101Z,57.84
2018-04-04T11:44:56.243Z,57.75
2018-04-04T11:45:56.415Z,57.26
2018-04-04T11:46:56.605Z,56.91
2018-04-04T11:47:56.772Z,56.81
2018-04-04T11:48:56.942Z,57.14
2018-04-04T11:49:57.139Z,57.84
2018-04-04T11:50:57.275Z,57.07
2018-04-04T11:51:57.433Z,56.40
2018-04-04T11:52:57.624Z,56.14
2018-04-04T11:53:57.819Z,55.94
2018-04-04T11:54:58.001Z,55.76
2018-04-04T11:55:58.185Z,55.08
2018-04-04T11:56:58.393Z,55.27
2018-04-04T11:57:58.561Z,55.08
2018-04-04T11:58:58.726Z,54.79
2018-04-04T11:59:58.897Z,55.37
2018-04-04T12:00:59.097Z,55.76
2018-04-04T12:01:59.242Z,54.43
2018-04-04T12:02:59.446Z,54.14
2018-04-04T12:03:59.755Z,54.24
2018-04-04T12:04:59.779Z,54.24
2018-04-04T12:05:59.950Z,54.05
2018-04-04T12:07:00.150Z,53.96
2018-04-04T12:08:00.316Z,53.38
2018-04-04T12:09:00.474Z,53.66
2018-04-04T12:10:00.643Z,53.19
2018-04-04T12:11:00.805Z,54.02
2018-04-04T12:12:01.013Z,54.14
2018-04-04T12:13:01.202Z,54.24
2018-04-04T12:14:01.337Z,53.96
2018-04-04T12:16:01.798Z,53.02
2018-04-04T12:17:01.894Z,52.63
2018-04-04T12:18:02.066Z,52.73
2018-04-04T12:19:02.248Z,52.37
2018-04-04T12:20:02.445Z,51.86
2018-04-04T12:21:02.610Z,51.89
2018-04-04T12:22:02.784Z,51.89
2018-04-04T12:23:02.982Z,50.54
2018-04-04T12:24:03.152Z,50.18
2018-04-04T12:25:03.314Z,50.45
2018-04-04T12:26:03.507Z,49.99
2018-04-04T12:27:03.679Z,49.89
2018-04-04T12:28:03.891Z,50.76
2018-04-04T12:29:04.055Z,50.95
2018-04-04T12:30:04.261Z,51.24
2018-04-04T12:31:04.443Z,50.76
2018-04-04T12:32:04.593Z,50.76
2018-04-04T12:33:04.831Z,49.96
2018-04-04T12:34:04.962Z,50.54
2018-04-04T12:35:05.138Z,50.47
2018-04-04T12:36:05.323Z,50.09
2018-04-04T12:37:05.534Z,49.68
2018-04-04T12:38:05.686Z,49.29
2018-04-04T12:39:05.892Z,49.58
2018-04-04T12:40:06.053Z,49.70
2018-04-04T12:41:06.227Z,49.89
2018-04-04T12:42:06.449Z,49.22
2018-04-04T12:43:06.611Z,49.51
2018-04-04T12:44:06.763Z,48.86
2018-04-04T12:45:06.995Z,48.83
2018-04-04T12:46:07.225Z,49.60
2018-04-04T12:47:07.343Z,48.93
2018-04-04T12:48:07.566Z,49.32
2018-04-04T12:49:07.687Z,49.12
2018-04-04T12:50:08.093Z,48.76
2018-04-04T12:51:08.054Z,49.12
2018-04-04T12:52:08.215Z,49.60
2018-04-04T12:53:08.392Z,49.51
2018-04-04T12:54:08.561Z,49.87
2018-04-04T12:55:08.749Z,50.06
2018-04-04T12:56:08.922Z,50.73
2018-04-04T12:57:09.115Z,50.09
2018-04-04T12:58:09.266Z,49.12
2018-04-04T12:59:09.463Z,48.93